Vers la page d'accueil de NAV CANADA Ouverture d'une nouvelle session Chercher sur le site AWWS Clause de non-reponsabilité To the equivalent English page Trucs et astuces FAQ Quoi de neuf sur le site Vers la section Prévisions et observations / NOTAM Vers le site web pour <<Déposer un plan de vol>> Publications et liens importants Mise à jour du profil d'usager Numéros de téléphone des FIC Mes données météo personnelles Données météo de route Données météo régionales Données météo locales Vers la section Prévisions et observations / NOTAM
Requête générée le 2021/04/12 à 03:44:04 UTC. L'information météorologique disponible à ce moment est affichée.

METAR/TAF

Si vous notez des différences entre le METAR/TAF codé et le METAR/TAF en langage clair, veuillez utiliser la version codée. Les bulletins LWIS ne sont pas décodés en langage clair.

OTTAWA/MACDONALD-CARTIER INTL/ON    

METAR CYOW 120300Z 06015G22KT 15SM SCT060 BKN180 12/M02 A2969 RMK SC3AC4 SLP055 ENSITY ALT 500FT=
METAR
LIEU
CYOW - OTTAWA/MACDONALD-CARTIER INTL/ON
DATE - HEURE
12 AVRIL 2021 - 0300 UTC
VENT
60 VRAIS @ 15  NOEUDS
RAFALES
22 NOEUDS
VISIBILITE
15 MILLES TERR.
PORTEE VISUELLE DE PISTE
METEO
NEBULOSITE
NUAGES EPARS (3/8 - 4/8) 6000  PI
NUAGES FRAGMENTES (5/8 - 7/8) 18000  PI
TEMP / PT DE ROSEE
12 C / -2 C
ALTIMETRE
29.69 PO HG
TEMPS RECENT
CISAILLEMENT

METAR CYOW 120200Z 06013G23KT 15SM SCT100 OVC180 13/M02 A2968 RMK AC3AC5 SLP054 ENSITY ALT 500FT=
METAR
LIEU
CYOW - OTTAWA/MACDONALD-CARTIER INTL/ON
DATE - HEURE
12 AVRIL 2021 - 0200 UTC
VENT
60 VRAIS @ 13  NOEUDS
RAFALES
23 NOEUDS
VISIBILITE
15 MILLES TERR.
PORTEE VISUELLE DE PISTE
METEO
NEBULOSITE
NUAGES EPARS (3/8 - 4/8) 10000  PI
CIEL COUVERT 18000  PI
TEMP / PT DE ROSEE
13 C / -2 C
ALTIMETRE
29.68 PO HG
TEMPS RECENT
CISAILLEMENT

METAR CYOW 120100Z 06016G30KT 15SM BKN100 OVC180 14/M02 A2967 RMK AC6AC2 SLP049 ENSITY ALT 700FT=
METAR
LIEU
CYOW - OTTAWA/MACDONALD-CARTIER INTL/ON
DATE - HEURE
12 AVRIL 2021 - 0100 UTC
VENT
60 VRAIS @ 16  NOEUDS
RAFALES
30 NOEUDS
VISIBILITE
15 MILLES TERR.
PORTEE VISUELLE DE PISTE
METEO
NEBULOSITE
NUAGES FRAGMENTES (5/8 - 7/8) 10000  PI
CIEL COUVERT 18000  PI
TEMP / PT DE ROSEE
14 C / -2 C
ALTIMETRE
29.67 PO HG
TEMPS RECENT
CISAILLEMENT

TAF CYOW 120238Z 1203/1224 07015G25KT P6SM SCT100 OVC180 FM120500 07015G25KT P6SM BKN050 BKN180 FM121200 08018G28KT P6SM FEW050 SCT180 FM121500 08015G25KT P6SM FEW030 FM121800 08015G25KT P6SM BKN030 RMK NXT FCST BY 120600Z=
TAF
LIEU

CYOW - OTTAWA/MACDONALD-CARTIER INTL/ON
VALIDITE [UTC]
12 APR - 0238 à
13 APR - 0000
 
PERIODES
[UTC]
VENT
[DEGRES VRAIS]
VISIBILITE
[MILLES TERR.]
METEO
NEBULOSITE
[PIEDS AGL]
 
12 APR - 0300 à
12 APR - 0500
70 @ 15 NOEUDS
RAFALES 25 NOEUDS
6+
---
10000 EPARS
18000 CIEL COUVERT
 
12 APR - 0500 à
12 APR - 1200
70 @ 15 NOEUDS
RAFALES 25 NOEUDS
6+
---
5000 FRAGMENTES
18000 FRAGMENTES
 
12 APR - 1200 à
12 APR - 1500
80 @ 18 NOEUDS
RAFALES 28 NOEUDS
6+
---
5000 QUELQUES
18000 EPARS
 
12 APR - 1500 à
12 APR - 1800
80 @ 15 NOEUDS
RAFALES 25 NOEUDS
6+
---
3000 QUELQUES
 
12 APR - 1800 à
13 APR - 0000
80 @ 15 NOEUDS
RAFALES 25 NOEUDS
6+
---
3000 FRAGMENTES
REMARQUES
LA PREVISION SUIVANTE SERA EMISE POUR 0600 UTC LE 12


Votre heure Heure UTC
Données météorologiques fournies par Environnement Canada et NAV CANADA